Time;durP1;ratioP1;P1;durP2;ratioP2;P2;SDS_P1;SDS_P2;PMS_P1;PMS_P2;Temp;Humidity;BMP_temperature;BMP_pressure;BME280_temperature;BME280_humidity;BME280_pressure;Samples;Min_cycle;Max_cycle;Signal;HPM_P1;HPM_P2
2024/03/08 00:01:47;;;;;;;0.57;0.57;;;;;;;2.15;63.68;101950.00;15817846;28;20044;-49
2024/03/08 00:09:21;;;;;;;2.10;1.98;;;;;;;1.97;63.84;101939.09;15847619;28;20357;-46
2024/03/08 00:16:57;;;;;;;1.42;0.93;;;;;;;0.60;69.29;101938.34;15852380;28;20403;-49
2024/03/08 00:24:31;;;;;;;0.10;0.10;;;;;;;0.86;69.54;101935.53;15766935;28;20040;-50
2024/03/08 00:32:09;;;;;;;0.25;0.25;;;;;;;1.09;68.61;101941.69;15775079;28;20119;-46
2024/03/08 00:39:43;;;;;;;0.25;0.25;;;;;;;1.20;68.11;101933.75;15720165;28;20143;-50
2024/03/08 00:47:18;;;;;;;0.28;0.28;;;;;;;1.43;66.88;101924.03;15768794;28;20130;-46
2024/03/08 00:54:52;;;;;;;1.45;1.33;;;;;;;1.81;65.86;101923.59;15749292;28;20040;-50
2024/03/08 01:02:29;;;;;;;0.28;0.28;;;;;;;0.62;69.64;101922.41;15766611;28;20535;-49
2024/03/08 01:10:04;;;;;;;0.47;0.47;;;;;;;0.77;70.03;101911.50;15755799;28;20040;-47
2024/03/08 01:17:39;;;;;;;0.10;0.10;;;;;;;0.62;70.76;101903.91;15741291;28;20036;-47
2024/03/08 01:25:14;;;;;;;0.03;0.03;;;;;;;1.31;67.97;101895.91;15783085;28;20459;-50
2024/03/08 01:32:50;;;;;;;0.10;0.10;;;;;;;1.62;66.49;101889.00;15789446;28;20047;-45
2024/03/08 01:40:24;;;;;;;0.15;0.15;;;;;;;1.58;66.19;101880.44;15798145;28;20047;-48
2024/03/08 01:47:58;;;;;;;;;;;;;;;1.33;66.75;101878.09;15802774;28;20062;-47
2024/03/08 01:55:34;;;;;;;0.00;0.00;;;;;;;1.12;68.18;101854.19;15797114;28;20372;-50
2024/03/08 02:03:10;;;;;;;0.95;0.68;;;;;;;1.33;67.02;101847.19;15804056;28;20052;-50
2024/03/08 02:10:45;;;;;;;0.17;0.17;;;;;;;1.22;67.56;101857.81;15802160;28;20039;-45
2024/03/08 02:18:20;;;;;;;1.48;0.73;;;;;;;1.25;67.65;101847.81;15800200;28;21262;-46
2024/03/08 02:25:57;;;;;;;0.15;0.15;;;;;;;0.97;68.43;101851.78;15781861;28;20564;-50
2024/03/08 02:33:32;;;;;;;0.93;0.65;;;;;;;0.99;68.25;101841.13;15798782;28;20071;-50
2024/03/08 02:41:08;;;;;;;0.88;0.45;;;;;;;1.04;68.12;101836.31;15793564;28;20509;-46
2024/03/08 02:48:43;;;;;;;0.10;0.10;;;;;;;0.92;68.60;101829.31;15778019;28;20481;-47
2024/03/08 02:56:18;;;;;;;0.00;0.00;;;;;;;0.83;68.00;101819.47;15794059;28;20290;-49
2024/03/08 03:03:53;;;;;;;0.20;0.20;;;;;;;0.76;68.53;101822.59;15796862;28;20570;-46
2024/03/08 03:11:28;;;;;;;2.15;2.05;;;;;;;0.70;68.98;101824.88;15778027;28;20135;-51
2024/03/08 03:19:05;;;;;;;0.50;0.50;;;;;;;0.47;68.89;101819.59;15791975;28;20043;-46
2024/03/08 03:26:40;;;;;;;0.65;0.43;;;;;;;0.48;69.21;101813.34;15791244;28;20036;-49
2024/03/08 03:34:15;;;;;;;0.20;0.20;;;;;;;0.44;68.49;101813.69;15792888;28;20547;-50
2024/03/08 03:41:51;;;;;;;0.28;0.28;;;;;;;0.54;68.44;101806.75;15795519;28;20441;-48
2024/03/08 03:49:28;;;;;;;0.88;0.80;;;;;;;0.54;68.39;101822.59;15794267;28;20044;-48
2024/03/08 03:57:04;;;;;;;1.05;0.95;;;;;;;0.46;69.74;101820.53;15775071;28;20078;-48
2024/03/08 04:04:41;;;;;;;0.63;0.63;;;;;;;0.44;69.20;101818.97;15794387;28;20055;-46
2024/03/08 04:12:24;;;;;;;0.10;0.10;;;;;;;0.35;69.13;101814.41;15776743;28;20044;-49
2024/03/08 04:19:57;;;;;;;0.10;0.10;;;;;;;0.20;69.35;101817.25;15793134;28;20086;-49
2024/03/08 04:27:34;;;;;;;0.28;0.28;;;;;;;0.43;68.81;101810.22;15774363;28;20200;-50
2024/03/08 04:35:09;;;;;;;0.10;0.10;;;;;;;-0.84;74.36;101810.91;15790365;28;20067;-50
2024/03/08 04:42:44;;;;;;;0.20;0.20;;;;;;;-0.16;71.81;101804.19;15787072;28;20067;-49
2024/03/08 04:50:18;;;;;;;0.00;0.00;;;;;;;-0.11;71.75;101802.88;15786566;28;20040;-53
2024/03/08 04:57:53;;;;;;;2.05;1.90;;;;;;;-0.81;75.26;101808.88;15768284;28;20187;-48
2024/03/08 05:05:28;;;;;;;0.20;0.20;;;;;;;-0.41;73.46;101805.16;15787914;28;20078;-48
2024/03/08 05:13:03;;;;;;;0.75;0.75;;;;;;;0.13;70.79;101805.47;15776977;28;20051;-51
2024/03/08 05:20:39;;;;;;;0.00;0.00;;;;;;;0.30;70.95;101801.56;15811940;28;20036;-52
2024/03/08 05:28:14;;;;;;;2.22;1.92;;;;;;;-1.06;75.04;101746.56;15831905;28;20043;-49
2024/03/08 05:35:47;;;;;;;0.88;0.63;;;;;;;-1.07;77.03;101784.41;15822860;28;20040;-49
2024/03/08 05:43:24;;;;;;;0.50;0.50;;;;;;;-0.53;75.01;101786.63;15833771;28;20130;-50
2024/03/08 05:51:01;;;;;;;0.95;0.95;;;;;;;-0.57;74.28;101777.25;15820106;28;20040;-50
2024/03/08 05:58:36;;;;;;;0.20;0.20;;;;;;;0.03;71.89;101780.72;15814546;28;20298;-52
2024/03/08 06:06:17;;;;;;;0.10;0.10;;;;;;;-0.13;72.48;101783.69;15825896;28;20036;-49
2024/03/08 06:13:59;;;;;;;0.17;0.17;;;;;;;-0.65;75.10;101798.09;15816367;28;20497;-48
2024/03/08 06:21:35;;;;;;;0.43;0.43;;;;;;;0.14;73.26;101801.03;15820144;28;20040;-51
2024/03/08 06:29:10;;;;;;;0.80;0.80;;;;;;;-0.26;74.32;101796.13;15818090;28;20063;-46
2024/03/08 06:36:45;;;;;;;0.25;0.25;;;;;;;-0.08;75.29;101796.53;15854489;28;20043;-52
2024/03/08 06:44:21;;;;;;;1.17;0.22;;;;;;;0.10;75.02;101794.31;15845608;28;20041;-49
2024/03/08 06:51:56;;;;;;;3.85;1.10;;;;;;;-0.13;76.06;101786.34;15827551;28;20096;-51
2024/03/08 06:59:39;;;;;;;0.32;0.32;;;;;;;0.56;74.81;101781.06;15825251;28;20051;-51
2024/03/08 07:07:20;;;;;;;0.55;0.55;;;;;;;1.29;71.37;101782.28;15853426;28;20097;-49
2024/03/08 07:14:58;;;;;;;1.55;1.02;;;;;;;2.47;66.65;101785.66;15844277;28;20128;-50
2024/03/08 07:22:32;;;;;;;3.83;1.75;;;;;;;2.68;65.50;101777.69;15850097;28;20482;-49
2024/03/08 07:30:35;;;;;;;0.65;0.65;;;;;;;3.85;62.48;101768.94;15848006;28;20202;-51
2024/03/08 07:38:07;;;;;;;0.47;0.47;;;;;;;4.57;59.61;101760.41;15858476;28;20127;-52
2024/03/08 07:45:42;;;;;;;2.38;1.88;;;;;;;4.22;60.56;101766.38;15849118;28;20148;-48
2024/03/08 07:53:16;;;;;;;1.55;1.33;;;;;;;4.49;59.48;101760.28;15817512;28;20043;-50
2024/03/08 08:00:51;;;;;;;1.50;1.40;;;;;;;5.67;56.70;101750.63;15821231;28;20145;-49
2024/03/08 08:08:26;;;;;;;2.15;1.80;;;;;;;5.84;55.46;101750.59;15851351;28;20367;-47
2024/03/08 08:16:01;;;;;;;0.57;0.57;;;;;;;6.20;54.41;101741.72;15809685;28;20028;-51
2024/03/08 08:23:38;;;;;;;0.13;0.13;;;;;;;6.61;53.34;101743.59;15837145;28;20047;-52
2024/03/08 08:31:12;;;;;;;0.50;0.50;;;;;;;6.19;54.48;101734.72;15826738;28;20077;-49
2024/03/08 08:38:46;;;;;;;2.00;1.15;;;;;;;8.23;50.73;101724.47;15843052;28;20503;-50
2024/03/08 08:46:21;;;;;;;1.15;1.05;;;;;;;7.62;48.83;101722.19;15803235;28;20039;-49
2024/03/08 08:53:55;;;;;;;0.35;0.35;;;;;;;8.45;47.68;101714.91;15844102;28;20048;-48
2024/03/08 09:01:31;;;;;;;0.90;0.90;;;;;;;8.78;46.76;101700.38;15806640;28;20039;-51
2024/03/08 09:09:05;;;;;;;1.33;1.23;;;;;;;8.31;45.54;101674.44;15832796;28;20043;-53
2024/03/08 09:16:40;;;;;;;;;;;;;;;8.17;46.42;101692.03;15845562;28;20403;-50
2024/03/08 09:24:14;;;;;;;3.47;0.93;;;;;;;8.95;45.35;101674.34;15852079;28;20346;-47
2024/03/08 09:31:49;;;;;;;1.77;1.20;;;;;;;8.46;45.69;101681.78;15822848;28;20040;-50
2024/03/08 09:39:23;;;;;;;1.02;0.93;;;;;;;8.36;44.78;101671.25;15832957;28;20126;-50
2024/03/08 09:47:02;;;;;;;1.05;0.77;;;;;;;9.99;42.20;101666.66;15811218;28;20118;-51
2024/03/08 09:54:36;;;;;;;1.13;0.50;;;;;;;9.72;42.26;101655.50;15836752;28;20416;-50
2024/03/08 10:02:16;;;;;;;2.13;1.50;;;;;;;10.32;41.50;101651.88;15858818;28;20047;-48
2024/03/08 10:09:55;;;;;;;1.15;1.15;;;;;;;9.49;41.59;101650.19;15849237;28;20540;-49
2024/03/08 10:17:32;;;;;;;2.95;1.55;;;;;;;9.71;42.03;101635.91;15834991;28;20040;-50
2024/03/08 10:25:08;;;;;;;1.48;0.98;;;;;;;9.69;41.19;101629.88;15701157;22;20166;-51
2024/03/08 10:32:43;;;;;;;0.28;0.28;;;;;;;10.37;39.76;101611.06;15664266;28;20069;-53
2024/03/08 10:40:18;;;;;;;0.52;0.52;;;;;;;10.22;40.29;101611.06;15671828;28;20413;-55
2024/03/08 10:48:06;;;;;;;1.25;0.77;;;;;;;10.51;37.50;101575.31;15674506;28;20040;-52
2024/03/08 10:55:41;;;;;;;1.60;1.50;;;;;;;11.46;36.66;101587.56;15674580;28;20048;-54
2024/03/08 11:03:50;;;;;;;2.25;1.48;;;;;;;10.79;36.51;101593.38;15675505;28;20464;-54
2024/03/08 11:11:30;;;;;;;0.00;0.00;;;;;;;11.79;33.82;101560.06;15678133;28;20049;-54
2024/03/08 11:19:25;;;;;;;0.05;0.05;;;;;;;12.03;34.58;101559.63;15694920;28;20048;-54
2024/03/08 11:27:04;;;;;;;0.43;0.30;;;;;;;11.06;34.22;101551.50;15743052;28;20358;-53
2024/03/08 11:34:43;;;;;;;1.55;0.73;;;;;;;13.00;33.29;101537.69;15747630;28;20036;-53
2024/03/08 11:42:17;;;;;;;1.45;0.68;;;;;;;12.50;32.90;101531.00;15748384;28;20048;-52
2024/03/08 11:49:53;;;;;;;1.27;1.17;;;;;;;11.94;33.21;101515.91;15767842;28;20160;-53
2024/03/08 11:57:28;;;;;;;0.98;0.68;;;;;;;12.27;32.50;101515.22;15773240;28;20048;-53
2024/03/08 12:05:09;;;;;;;0.40;0.40;;;;;;;11.67;32.07;101495.25;15785529;28;20043;-55
2024/03/08 12:12:44;;;;;;;1.38;1.27;;;;;;;12.47;32.01;101489.16;15740136;28;20090;-52
2024/03/08 12:20:25;;;;;;;0.00;0.00;;;;;;;12.66;30.61;101478.63;15701818;28;20056;-52
2024/03/08 12:28:10;;;;;;;0.38;0.38;;;;;;;12.28;29.58;101465.72;15670397;28;20401;-52
2024/03/08 12:35:58;;;;;;;0.88;0.88;;;;;;;12.73;29.79;101453.34;15665578;28;20049;-52
2024/03/08 12:43:33;;;;;;;3.30;1.05;;;;;;;13.55;29.84;101451.19;15668865;28;20063;-55
2024/03/08 12:51:09;;;;;;;3.08;1.23;;;;;;;12.76;30.43;101431.38;15673012;28;20238;-54
2024/03/08 12:58:44;;;;;;;0.77;0.55;;;;;;;12.99;30.40;101430.94;15662194;28;20269;-53
2024/03/08 13:06:21;;;;;;;3.60;2.30;;;;;;;12.93;30.67;101409.41;15664949;28;20060;-53
2024/03/08 13:13:55;;;;;;;1.40;1.10;;;;;;;12.98;31.41;101406.91;15667853;28;20132;-53
2024/03/08 13:21:31;;;;;;;1.60;1.23;;;;;;;12.74;32.15;101389.53;15711776;28;20481;-54
2024/03/08 13:29:06;;;;;;;0.22;0.22;;;;;;;13.16;30.94;101380.13;15745886;28;20501;-53
2024/03/08 13:36:43;;;;;;;0.55;0.55;;;;;;;12.82;31.35;101373.13;15753227;28;20036;-56
2024/03/08 13:44:18;;;;;;;3.72;2.28;;;;;;;11.85;31.85;101361.09;15790926;28;20435;-53
2024/03/08 13:51:54;;;;;;;1.17;1.08;;;;;;;9.81;35.65;101348.75;15755085;28;20036;-50
2024/03/08 13:59:29;;;;;;;0.32;0.32;;;;;;;10.28;35.10;101339.31;15784326;28;20037;-53
2024/03/08 14:07:08;;;;;;;0.82;0.57;;;;;;;10.52;35.42;101321.13;15757606;28;20048;-52
2024/03/08 14:14:42;;;;;;;0.75;0.65;;;;;;;10.00;36.33;101311.59;15755652;28;20036;-52
2024/03/08 14:22:17;;;;;;;0.47;0.47;;;;;;;10.02;36.52;101312.22;15762697;28;20547;-52
2024/03/08 14:29:51;;;;;;;7.15;1.67;;;;;;;9.64;36.86;101296.41;15722352;28;20040;-53
2024/03/08 14:37:29;;;;;;;0.43;0.40;;;;;;;9.57;37.69;101282.94;15774916;28;20122;-52
2024/03/08 14:45:03;;;;;;;1.98;1.77;;;;;;;9.30;37.36;101276.44;15729411;28;20047;-52
2024/03/08 14:52:39;;;;;;;2.78;1.27;;;;;;;9.56;37.07;101267.88;15753087;28;20166;-53
2024/03/08 15:00:26;;;;;;;3.25;2.53;;;;;;;9.91;37.05;101265.31;15769838;28;20048;-52
2024/03/08 15:08:02;;;;;;;3.17;2.13;;;;;;;9.33;38.00;101265.38;15768840;28;20184;-51
2024/03/08 15:15:36;;;;;;;1.45;1.35;;;;;;;9.29;37.54;101244.50;15753874;28;20052;-51
2024/03/08 15:23:12;;;;;;;0.60;0.60;;;;;;;9.12;38.23;101241.22;15697907;28;20076;-54
2024/03/08 15:30:51;;;;;;;0.10;0.10;;;;;;;9.39;37.29;101239.66;15665385;28;20124;-51
2024/03/08 15:38:31;;;;;;;2.97;1.45;;;;;;;9.46;37.83;101227.16;15676464;28;20037;-52
2024/03/08 15:46:05;;;;;;;3.42;1.17;;;;;;;9.50;38.41;101225.75;15671186;28;20064;-52
2024/03/08 15:53:40;;;;;;;5.68;1.15;;;;;;;8.93;38.96;101226.56;15663871;28;20041;-52
2024/03/08 16:01:16;;;;;;;1.42;1.10;;;;;;;8.99;39.09;101228.50;15670098;28;20497;-51
2024/03/08 16:08:52;;;;;;;0.63;0.15;;;;;;;8.88;39.80;101215.59;15670783;28;20049;-53
2024/03/08 16:16:29;;;;;;;1.55;1.27;;;;;;;8.89;40.40;101198.50;15674531;28;20048;-51
2024/03/08 16:24:05;;;;;;;0.55;0.55;;;;;;;8.81;40.09;101207.50;15675333;28;20048;-51
2024/03/08 16:31:41;;;;;;;1.20;1.10;;;;;;;8.49;41.57;101203.38;15674128;28;20126;-50
2024/03/08 16:39:34;;;;;;;6.28;1.45;;;;;;;8.35;41.58;101202.31;15668819;28;20053;-50
2024/03/08 16:47:08;;;;;;;1.27;0.98;;;;;;;8.52;41.56;101204.84;15657901;28;20548;-49
2024/03/08 16:54:43;;;;;;;;;;;;;;;7.96;43.15;101194.53;15675771;28;20076;-49
2024/03/08 17:02:17;;;;;;;4.82;1.38;;;;;;;7.71;44.87;101185.91;15677567;28;19920;-53
2024/03/08 17:09:53;;;;;;;10.85;1.42;;;;;;;7.53;45.14;101183.56;15679412;28;20040;-53
2024/03/08 17:17:27;;;;;;;0.20;0.17;;;;;;;7.79;45.02;101169.81;15689748;28;20098;-52
2024/03/08 17:25:05;;;;;;;0.65;0.65;;;;;;;7.11;46.95;101186.69;15740949;28;20048;-51
2024/03/08 17:32:39;;;;;;;3.75;0.47;;;;;;;7.06;47.64;101176.56;15744256;28;20102;-50
2024/03/08 17:40:17;;;;;;;0.25;0.25;;;;;;;6.65;48.55;101175.94;15751763;28;20445;-50
2024/03/08 17:47:52;;;;;;;0.47;0.38;;;;;;;6.43;49.46;101169.50;15750477;28;20512;-54
2024/03/08 17:55:29;;;;;;;0.10;0.10;;;;;;;6.16;50.03;101164.63;15735710;28;20495;-49
2024/03/08 18:03:05;;;;;;;0.20;0.20;;;;;;;6.23;49.89;101162.94;15752062;28;20094;-53
2024/03/08 18:10:40;;;;;;;0.52;0.52;;;;;;;5.98;50.02;101131.03;15751098;28;20418;-53
2024/03/08 18:18:14;;;;;;;0.08;0.08;;;;;;;5.91;51.26;101163.81;15710122;28;20327;-57
2024/03/08 18:25:50;;;;;;;0.95;0.95;;;;;;;6.09;51.24;101175.13;15683537;28;20036;-55
2024/03/08 18:33:27;;;;;;;0.20;0.20;;;;;;;5.77;52.38;101168.81;15657270;28;20057;-52
2024/03/08 18:41:03;;;;;;;1.40;1.15;;;;;;;5.96;52.08;101177.47;15641993;28;20497;-51
2024/03/08 18:48:39;;;;;;;0.65;0.52;;;;;;;5.94;51.81;101163.50;15654528;28;20065;-51
2024/03/08 18:56:16;;;;;;;4.65;2.70;;;;;;;5.45;53.72;101167.00;15667646;28;20049;-54
2024/03/08 19:03:51;;;;;;;2.00;1.85;;;;;;;5.25;53.93;101158.50;15651247;28;20410;-54
2024/03/08 19:11:26;;;;;;;0.52;0.52;;;;;;;5.18;54.04;101148.72;15662705;28;20065;-54
2024/03/08 19:19:00;;;;;;;0.55;0.55;;;;;;;4.88;54.92;101144.81;15685167;28;20045;-57
2024/03/08 19:26:35;;;;;;;;;;;;;;;5.05;54.12;101150.00;15777608;28;20418;-51
2024/03/08 19:34:08;;;;;;;0.93;0.85;;;;;;;4.48;54.62;101102.03;15768341;28;20484;-52
2024/03/08 19:41:44;;;;;;;10.18;2.20;;;;;;;4.77;54.97;101145.97;15764157;28;20045;-52
2024/03/08 19:49:17;;;;;;;0.75;0.52;;;;;;;4.72;54.93;101149.13;15768768;28;20040;-53
2024/03/08 19:56:53;;;;;;;2.10;1.92;;;;;;;4.44;55.14;101131.75;15762335;28;20040;-51
2024/03/08 20:04:28;;;;;;;0.00;0.00;;;;;;;4.61;55.01;101134.28;15766160;28;20056;-50
2024/03/08 20:12:07;;;;;;;0.68;0.68;;;;;;;4.37;55.04;101128.06;15761312;28;20053;-51
2024/03/08 20:19:42;;;;;;;1.27;1.20;;;;;;;4.07;56.28;101114.31;15716457;28;20106;-51
2024/03/08 20:27:17;;;;;;;0.38;0.38;;;;;;;4.04;56.06;101106.66;15686034;28;20049;-51
2024/03/08 20:34:51;;;;;;;3.35;0.95;;;;;;;4.40;55.26;101123.25;15692914;28;20095;-51
2024/03/08 20:42:27;;;;;;;1.30;1.15;;;;;;;4.17;55.67;101114.19;15672336;28;20457;-53
2024/03/08 20:50:07;;;;;;;1.75;0.90;;;;;;;4.18;55.61;101103.41;15669778;28;20056;-52
2024/03/08 20:57:48;;;;;;;0.57;0.57;;;;;;;4.01;56.07;101091.88;15664837;28;20040;-53
2024/03/08 21:05:22;;;;;;;0.55;0.55;;;;;;;4.06;55.96;101089.56;15657156;28;20111;-52
2024/03/08 21:12:59;;;;;;;1.95;1.55;;;;;;;3.73;57.31;101080.63;15665100;28;20055;-54
2024/03/08 21:20:33;;;;;;;3.58;0.85;;;;;;;3.98;56.84;101076.25;15679522;28;20045;-49
2024/03/08 21:28:10;;;;;;;2.10;1.10;;;;;;;3.61;58.18;101073.91;15682221;28;20045;-54
2024/03/08 21:35:46;;;;;;;0.85;0.82;;;;;;;3.55;58.40;101061.25;15677831;28;20048;-52
2024/03/08 21:43:22;;;;;;;3.30;0.73;;;;;;;3.20;59.69;101057.69;15696953;28;20041;-52
2024/03/08 21:50:55;;;;;;;0.50;0.50;;;;;;;3.32;59.50;101053.81;15700911;28;20052;-53
2024/03/08 21:58:32;;;;;;;1.33;1.13;;;;;;;2.99;60.07;101049.25;15714880;28;20045;-53
2024/03/08 22:06:10;;;;;;;0.75;0.57;;;;;;;3.04;59.91;101044.31;15686731;28;20063;-49
2024/03/08 22:13:46;;;;;;;0.20;0.20;;;;;;;2.93;61.34;101045.38;15656665;28;20033;-48
2024/03/08 22:21:20;;;;;;;0.10;0.10;;;;;;;2.99;60.73;101036.00;15735157;22;20488;-48
2024/03/08 22:29:07;;;;;;;1.88;1.60;;;;;;;2.90;61.13;101035.09;15855236;28;20135;-48
2024/03/08 22:36:41;;;;;;;3.30;0.65;;;;;;;2.69;61.62;101023.97;15779003;28;20052;-48
2024/03/08 22:44:17;;;;;;;0.00;0.00;;;;;;;2.79;61.98;101019.41;15779446;28;20205;-47
2024/03/08 22:51:55;;;;;;;1.10;1.08;;;;;;;2.62;62.69;101004.38;15787816;28;20455;-50
2024/03/08 22:59:31;;;;;;;1.10;0.73;;;;;;;2.62;62.85;101001.72;15765418;28;20051;-47
2024/03/08 23:07:06;;;;;;;0.17;0.17;;;;;;;2.51;63.21;100995.63;15786733;28;20044;-47
2024/03/08 23:14:41;;;;;;;2.67;1.17;;;;;;;2.44;63.67;100997.25;15783412;28;20068;-47
2024/03/08 23:22:16;;;;;;;1.70;1.17;;;;;;;2.22;64.62;100989.72;15784163;28;20132;-50
2024/03/08 23:29:51;;;;;;;0.73;0.73;;;;;;;2.30;64.12;100982.69;15763102;28;20040;-48
2024/03/08 23:37:28;;;;;;;0.00;0.00;;;;;;;2.19;65.33;100982.94;15764254;28;20502;-50
2024/03/08 23:45:04;;;;;;;0.40;0.40;;;;;;;2.19;65.43;100975.00;15769376;28;20059;-50
2024/03/08 23:52:38;;;;;;;1.95;1.65;;;;;;;2.04;65.74;100977.28;15748931;28;20039;-51
